Time;durP1;ratioP1;P1;durP2;ratioP2;P2;SDS_P1;SDS_P2;PMS_P1;PMS_P2;Temp;Humidity;BMP_temperature;BMP_pressure;BME280_temperature;BME280_humidity;BME280_pressure;Samples;Min_cycle;Max_cycle;Signal;HPM_P1;HPM_P2
2022/02/27 00:01:02;;;;;;;15.23;3.40;;;2.00;99.90;;;;;;4988775;28;20034;-75
2022/02/27 00:03:28;;;;;;;8.43;3.20;;;1.90;99.90;;;;;;4992960;28;20026;-75
2022/02/27 00:05:53;;;;;;;9.52;2.67;;;1.90;99.90;;;;;;5011191;28;20047;-75
2022/02/27 00:08:19;;;;;;;6.03;2.67;;;1.80;99.90;;;;;;5009809;28;20088;-75
2022/02/27 00:10:44;;;;;;;11.55;2.70;;;1.80;99.90;;;;;;5009753;28;20030;-75
2022/02/27 00:13:10;;;;;;;9.02;3.03;;;1.70;99.90;;;;;;4992696;28;20034;-75
2022/02/27 00:15:36;;;;;;;10.25;3.10;;;1.70;99.90;;;;;;4988028;28;20039;-75
2022/02/27 00:18:01;;;;;;;10.13;3.35;;;1.70;99.90;;;;;;5001051;28;20040;-75
2022/02/27 00:20:27;;;;;;;11.73;3.35;;;1.70;99.90;;;;;;5009099;28;20105;-75
2022/02/27 00:22:53;;;;;;;8.65;3.53;;;1.60;99.90;;;;;;5007505;28;20034;-75
2022/02/27 00:25:18;;;;;;;8.00;2.85;;;1.60;99.90;;;;;;4987448;28;20032;-75
2022/02/27 00:27:44;;;;;;;9.30;2.88;;;1.50;99.90;;;;;;4998771;28;20026;-74
2022/02/27 00:30:10;;;;;;;8.13;2.83;;;1.50;99.90;;;;;;4995030;28;20030;-74
2022/02/27 00:32:39;;;;;;;8.57;3.55;;;1.50;99.90;;;;;;5010161;28;20130;-75
2022/02/27 00:35:06;;;;;;;10.60;3.00;;;1.50;99.90;;;;;;5009967;28;20105;-74
2022/02/27 00:37:32;;;;;;;10.75;3.70;;;1.40;99.90;;;;;;4986435;28;20076;-75
2022/02/27 00:39:58;;;;;;;11.07;3.10;;;1.40;99.90;;;;;;4991756;28;20017;-75
2022/02/27 00:42:23;;;;;;;9.75;3.38;;;1.40;99.90;;;;;;5007859;28;20118;-75
2022/02/27 00:44:49;;;;;;;8.95;3.13;;;1.40;99.90;;;;;;4992326;28;20061;-75
2022/02/27 00:47:15;;;;;;;8.63;3.38;;;1.40;99.90;;;;;;4998649;28;20434;-75
2022/02/27 00:49:40;;;;;;;9.88;3.20;;;1.40;99.90;;;;;;4991984;28;20030;-75
2022/02/27 00:52:06;;;;;;;8.10;3.22;;;1.30;99.90;;;;;;5009271;28;20040;-75
2022/02/27 00:54:32;;;;;;;7.38;3.10;;;1.30;99.90;;;;;;4991830;28;20040;-74
2022/02/27 00:56:57;;;;;;;13.77;3.53;;;1.30;99.90;;;;;;4988190;28;20351;-74
2022/02/27 00:59:23;;;;;;;9.57;3.28;;;1.30;99.90;;;;;;4989016;28;20163;-75
2022/02/27 01:01:49;;;;;;;8.55;3.72;;;1.20;99.90;;;;;;4984082;28;20026;-74
2022/02/27 01:04:14;;;;;;;8.50;3.42;;;1.20;99.90;;;;;;4990294;28;20022;-74
2022/02/27 01:06:40;;;;;;;10.27;3.30;;;1.20;99.90;;;;;;5009637;28;20072;-75
2022/02/27 01:09:06;;;;;;;9.05;3.45;;;1.10;99.90;;;;;;4979042;28;20186;-74
2022/02/27 01:11:33;;;;;;;9.65;3.33;;;1.10;99.90;;;;;;4988063;28;20034;-74
2022/02/27 01:13:59;;;;;;;13.32;3.55;;;1.10;99.90;;;;;;5007500;28;20066;-75
2022/02/27 01:16:25;;;;;;;12.00;3.42;;;1.00;99.90;;;;;;4999553;28;20104;-74
2022/02/27 01:18:51;;;;;;;12.25;3.55;;;1.00;99.90;;;;;;4986119;28;20655;-75
2022/02/27 01:21:17;;;;;;;12.00;3.63;;;1.10;99.90;;;;;;5009048;28;20409;-75
2022/02/27 01:23:44;;;;;;;11.93;3.90;;;1.00;99.90;;;;;;4995556;28;20062;-76
2022/02/27 01:26:09;;;;;;;11.18;3.50;;;1.00;99.90;;;;;;5007736;28;20122;-75
2022/02/27 01:28:35;;;;;;;15.38;3.53;;;1.00;99.90;;;;;;5000873;28;20109;-75
2022/02/27 01:31:00;;;;;;;9.88;3.72;;;1.00;99.90;;;;;;4987034;28;20027;-75
2022/02/27 01:33:26;;;;;;;14.88;3.72;;;0.90;99.90;;;;;;4952611;28;1062710;-75
2022/02/27 01:35:52;;;;;;;11.48;3.20;;;0.90;99.90;;;;;;4998985;28;20032;-74
2022/02/27 01:38:17;;;;;;;10.65;3.58;;;0.90;99.90;;;;;;4994119;28;20069;-75
2022/02/27 01:40:43;;;;;;;12.07;4.03;;;0.90;99.90;;;;;;5008083;28;20030;-75
2022/02/27 01:43:09;;;;;;;8.43;3.42;;;0.90;99.90;;;;;;4987932;28;20694;-75
2022/02/27 01:45:35;;;;;;;12.70;3.92;;;0.90;99.90;;;;;;5005112;28;20026;-75
2022/02/27 01:48:00;;;;;;;16.10;3.92;;;0.90;99.90;;;;;;5011810;28;20041;-75
2022/02/27 01:50:26;;;;;;;12.68;3.50;;;0.90;99.90;;;;;;5002656;28;20482;-75
2022/02/27 01:52:52;;;;;;;8.90;4.07;;;0.90;99.90;;;;;;5004594;28;20101;-74
2022/02/27 01:55:18;;;;;;;12.25;3.75;;;0.90;99.90;;;;;;4978814;28;20030;-74
2022/02/27 01:57:44;;;;;;;8.05;3.45;;;0.90;99.90;;;;;;4982390;28;20030;-74
2022/02/27 02:00:12;;;;;;;10.88;3.88;;;0.80;99.90;;;;;;5013424;28;20394;-75
2022/02/27 02:02:37;;;;;;;10.45;3.90;;;0.80;99.90;;;;;;4980889;28;20032;-74
2022/02/27 02:05:03;;;;;;;13.30;3.85;;;0.80;99.90;;;;;;4988890;28;20109;-74
2022/02/27 02:07:29;;;;;;;12.95;4.00;;;0.80;99.90;;;;;;5007064;28;20060;-75
2022/02/27 02:09:55;;;;;;;14.20;4.03;;;0.80;99.90;;;;;;4995971;28;20439;-75
2022/02/27 02:12:21;;;;;;;10.73;3.88;;;0.80;99.90;;;;;;5013172;28;20065;-75
2022/02/27 02:14:46;;;;;;;10.57;3.53;;;0.80;99.90;;;;;;4995835;28;20125;-74
2022/02/27 02:17:12;;;;;;;8.43;3.50;;;0.80;99.90;;;;;;5004099;28;20026;-75
2022/02/27 02:19:38;;;;;;;12.00;4.43;;;0.80;99.90;;;;;;5012695;28;20029;-75
2022/02/27 02:22:04;;;;;;;9.50;3.78;;;0.70;99.90;;;;;;5012515;28;20029;-75
2022/02/27 02:24:31;;;;;;;10.43;4.20;;;0.70;99.90;;;;;;4995213;28;20128;-75
2022/02/27 02:26:57;;;;;;;13.38;4.22;;;0.70;99.90;;;;;;5012059;28;20030;-74
2022/02/27 02:29:24;;;;;;;11.45;4.07;;;0.70;99.90;;;;;;4996414;28;20031;-75
2022/02/27 02:31:52;;;;;;;13.38;4.72;;;0.60;99.90;;;;;;4994925;28;20041;-75
2022/02/27 02:34:20;;;;;;;13.32;4.50;;;0.60;99.90;;;;;;5012461;28;20060;-75
2022/02/27 02:36:46;;;;;;;12.23;4.50;;;0.60;99.90;;;;;;5011491;28;20030;-75
2022/02/27 02:39:15;;;;;;;10.52;4.03;;;0.60;99.90;;;;;;5008000;28;20057;-75
2022/02/27 02:41:41;;;;;;;8.27;4.38;;;0.50;99.90;;;;;;4998733;28;20028;-75
2022/02/27 02:44:08;;;;;;;9.23;4.13;;;0.50;99.90;;;;;;4994380;28;20041;-75
2022/02/27 02:46:37;;;;;;;9.80;4.50;;;0.50;99.90;;;;;;5010363;28;20030;-75
2022/02/27 02:49:04;;;;;;;11.18;4.60;;;0.50;99.90;;;;;;5002792;28;20030;-75
2022/02/27 02:51:30;;;;;;;14.85;4.75;;;0.50;99.90;;;;;;5012917;28;20073;-75
2022/02/27 02:53:56;;;;;;;9.70;4.43;;;0.50;99.90;;;;;;5008466;28;20537;-75
2022/02/27 02:56:22;;;;;;;11.20;4.72;;;0.40;99.90;;;;;;5011180;28;20026;-75
2022/02/27 02:58:48;;;;;;;10.20;4.90;;;0.40;99.90;;;;;;5010938;28;20036;-75
2022/02/27 03:01:16;;;;;;;16.08;4.57;;;0.40;99.90;;;;;;5012550;28;20010;-75
2022/02/27 03:03:43;;;;;;;9.82;3.97;;;0.40;99.90;;;;;;5008951;28;20022;-75
2022/02/27 03:06:10;;;;;;;9.30;4.40;;;0.40;99.90;;;;;;5011744;28;20123;-75
2022/02/27 03:08:37;;;;;;;10.73;4.57;;;0.30;99.90;;;;;;4992752;28;20213;-75
2022/02/27 03:11:03;;;;;;;14.57;4.65;;;0.30;99.90;;;;;;4994365;28;20025;-75
2022/02/27 03:13:28;;;;;;;12.90;4.43;;;0.30;99.90;;;;;;4994976;28;20451;-76
2022/02/27 03:15:54;;;;;;;16.50;4.65;;;0.30;99.90;;;;;;4994784;28;20018;-76
2022/02/27 03:18:20;;;;;;;9.63;4.07;;;0.20;99.90;;;;;;4993033;28;20532;-74
2022/02/27 03:20:45;;;;;;;13.23;4.88;;;0.20;99.90;;;;;;4996601;28;20065;-75
2022/02/27 03:23:11;;;;;;;10.73;4.82;;;0.20;99.90;;;;;;4995000;28;20026;-76
2022/02/27 03:25:36;;;;;;;10.38;4.53;;;0.20;99.90;;;;;;5011908;28;20029;-75
2022/02/27 03:28:02;;;;;;;10.75;4.20;;;0.20;99.90;;;;;;5010019;28;20093;-77
2022/02/27 03:30:28;;;;;;;11.95;4.60;;;0.20;99.90;;;;;;5012076;28;20030;-73
2022/02/27 03:32:54;;;;;;;14.93;4.90;;;0.10;99.90;;;;;;4994254;28;20029;-73
2022/02/27 03:35:20;;;;;;;11.77;4.60;;;0.10;99.90;;;;;;4997169;28;20044;-74
2022/02/27 03:37:50;;;;;;;12.68;4.45;;;0.10;99.90;;;;;;5002533;28;20038;-73
2022/02/27 03:40:17;;;;;;;8.90;4.70;;;0.10;99.90;;;;;;5001114;28;20026;-74
2022/02/27 03:42:42;;;;;;;10.68;4.53;;;0.10;99.90;;;;;;5011536;28;20021;-73
2022/02/27 03:45:09;;;;;;;14.43;4.95;;;0.10;99.90;;;;;;5010744;28;20076;-74
2022/02/27 03:47:34;;;;;;;8.88;4.65;;;0.00;99.90;;;;;;5009090;28;20037;-74
2022/02/27 03:50:00;;;;;;;15.07;4.82;;;0.00;99.90;;;;;;4993925;28;20026;-73
2022/02/27 03:52:25;;;;;;;15.30;5.25;;;0.10;99.90;;;;;;5011526;28;20406;-74
2022/02/27 03:54:51;;;;;;;14.02;5.15;;;0.00;99.90;;;;;;5011875;28;20022;-74
2022/02/27 03:57:16;;;;;;;13.75;5.05;;;0.00;99.90;;;;;;5010906;28;20096;-74
2022/02/27 03:59:42;;;;;;;15.45;5.47;;;0.00;99.90;;;;;;5011328;28;20025;-74
2022/02/27 04:02:08;;;;;;;16.55;5.18;;;0.00;99.90;;;;;;4980538;28;20023;-74
2022/02/27 04:04:33;;;;;;;13.65;5.32;;;0.00;99.90;;;;;;5000227;28;20021;-74
2022/02/27 04:06:59;;;;;;;13.00;5.05;;;0.00;99.90;;;;;;4993633;28;20113;-75
2022/02/27 04:09:25;;;;;;;14.23;5.35;;;0.00;99.90;;;;;;5011475;28;20056;-73
2022/02/27 04:11:51;;;;;;;16.13;5.70;;;0.00;99.90;;;;;;4987490;28;20673;-74
2022/02/27 04:14:16;;;;;;;17.88;5.13;;;0.00;99.90;;;;;;5005079;28;20040;-74
2022/02/27 04:16:42;;;;;;;15.90;5.90;;;0.00;99.90;;;;;;5007965;28;20027;-74
2022/02/27 04:19:08;;;;;;;16.45;5.75;;;0.00;99.90;;;;;;5005810;28;20030;-74
2022/02/27 04:21:34;;;;;;;15.13;6.30;;;0.00;99.90;;;;;;4992847;28;20068;-75
2022/02/27 04:24:00;;;;;;;14.30;5.38;;;0.00;99.90;;;;;;4993556;28;20525;-76
2022/02/27 04:26:26;;;;;;;15.23;5.88;;;0.00;99.90;;;;;;5010905;28;20033;-75
2022/02/27 04:28:52;;;;;;;14.98;5.75;;;0.00;99.90;;;;;;4997265;28;20431;-73
2022/02/27 04:31:17;;;;;;;16.10;5.50;;;0.00;99.90;;;;;;5000467;28;20139;-74
2022/02/27 04:33:43;;;;;;;13.38;5.10;;;0.00;99.90;;;;;;5007008;28;20129;-74
2022/02/27 04:36:08;;;;;;;14.48;5.72;;;0.00;99.90;;;;;;5009981;28;20044;-72
2022/02/27 04:38:34;;;;;;;17.30;5.85;;;0.00;99.90;;;;;;4989851;28;20499;-74
2022/02/27 04:41:00;;;;;;;16.23;5.15;;;0.00;99.90;;;;;;4997586;28;20029;-73
2022/02/27 04:43:25;;;;;;;12.85;5.53;;;-0.10;99.90;;;;;;4992913;28;20026;-72
2022/02/27 04:45:51;;;;;;;18.00;6.10;;;-0.10;99.90;;;;;;5002817;28;20048;-74
2022/02/27 04:48:16;;;;;;;13.45;5.90;;;-0.10;99.90;;;;;;4992400;28;20446;-76
2022/02/27 04:50:42;;;;;;;17.08;5.82;;;-0.10;99.90;;;;;;4992995;28;20030;-76
2022/02/27 04:53:08;;;;;;;15.75;5.70;;;-0.10;99.90;;;;;;4992796;28;20492;-74
2022/02/27 04:55:34;;;;;;;16.13;5.88;;;-0.10;99.90;;;;;;4993196;28;20042;-74
2022/02/27 04:57:59;;;;;;;8.82;5.13;;;-0.10;99.90;;;;;;5008298;28;20030;-74
2022/02/27 05:00:25;;;;;;;17.88;6.55;;;-0.20;99.90;;;;;;4992718;28;20390;-74
2022/02/27 05:02:50;;;;;;;13.55;5.47;;;-0.20;99.90;;;;;;4982867;28;20042;-73
2022/02/27 05:05:16;;;;;;;12.43;5.43;;;-0.20;99.90;;;;;;5014923;28;20661;-74
2022/02/27 05:07:42;;;;;;;16.20;5.50;;;-0.20;99.90;;;;;;5008536;28;20018;-75
2022/02/27 05:10:08;;;;;;;13.10;5.30;;;-0.20;99.90;;;;;;4992158;28;20049;-75
2022/02/27 05:12:39;;;;;;;12.68;5.40;;;-0.20;99.90;;;;;;4998027;28;20398;-74
2022/02/27 05:15:07;;;;;;;17.88;5.53;;;-0.30;99.90;;;;;;5011007;28;20076;-74
2022/02/27 05:17:33;;;;;;;13.23;5.30;;;-0.30;99.90;;;;;;5003243;28;20490;-75
2022/02/27 05:19:59;;;;;;;13.35;5.35;;;-0.30;99.90;;;;;;5007799;28;20043;-74
2022/02/27 05:22:25;;;;;;;14.50;5.38;;;-0.30;99.90;;;;;;4983184;28;20111;-75
2022/02/27 05:24:50;;;;;;;18.77;6.10;;;-0.40;99.90;;;;;;4996553;28;20499;-74
2022/02/27 05:27:16;;;;;;;16.77;5.50;;;-0.40;99.90;;;;;;4990834;28;20068;-72
2022/02/27 05:29:41;;;;;;;16.17;5.55;;;-0.40;99.90;;;;;;4998872;28;20053;-75
2022/02/27 05:32:07;;;;;;;15.75;6.50;;;-0.40;99.90;;;;;;4995429;28;20101;-72
2022/02/27 05:34:33;;;;;;;13.43;5.80;;;-0.40;99.90;;;;;;5058511;23;20394;-68
2022/02/27 05:36:59;;;;;;;15.43;5.85;;;-0.40;99.90;;;;;;5008302;28;20022;-68
2022/02/27 05:39:25;;;;;;;10.98;6.00;;;-0.40;99.90;;;;;;5000091;28;20041;-69
2022/02/27 05:41:50;;;;;;;10.82;6.03;;;-0.40;99.90;;;;;;5009778;28;20434;-68
2022/02/27 05:44:16;;;;;;;18.35;6.60;;;-0.40;99.90;;;;;;5013424;28;20062;-68
2022/02/27 05:46:41;;;;;;;17.55;6.00;;;-0.40;99.90;;;;;;5013534;28;20048;-69
2022/02/27 05:49:07;;;;;;;13.27;6.47;;;-0.40;99.90;;;;;;5013249;28;20498;-68
2022/02/27 05:51:33;;;;;;;12.82;5.82;;;-0.40;99.90;;;;;;5012964;28;20486;-68
2022/02/27 05:53:58;;;;;;;13.98;6.28;;;-0.40;99.90;;;;;;5012383;28;20061;-68
2022/02/27 05:56:24;;;;;;;17.00;6.43;;;-0.40;99.90;;;;;;5013403;28;20033;-69
2022/02/27 05:58:51;;;;;;;14.40;5.80;;;-0.50;99.90;;;;;;5012120;28;20121;-68
2022/02/27 06:01:16;;;;;;;15.93;6.18;;;-0.50;99.90;;;;;;5007395;28;20188;-68
2022/02/27 06:03:42;;;;;;;19.77;6.90;;;-0.50;99.90;;;;;;5011520;28;20133;-68
2022/02/27 06:06:07;;;;;;;11.05;5.70;;;-0.50;99.90;;;;;;5007474;28;20096;-68
2022/02/27 06:08:33;;;;;;;17.05;6.75;;;-0.50;99.90;;;;;;5012510;28;20034;-68
2022/02/27 06:10:59;;;;;;;14.18;6.38;;;-0.50;99.90;;;;;;5011745;28;20053;-69
2022/02/27 06:13:24;;;;;;;16.25;6.30;;;-0.50;99.90;;;;;;5012609;28;20511;-69
2022/02/27 06:15:50;;;;;;;18.23;6.82;;;-0.50;99.90;;;;;;5012319;28;20051;-68
2022/02/27 06:18:16;;;;;;;13.57;6.10;;;-0.50;99.90;;;;;;4996362;28;20032;-68
2022/02/27 06:20:41;;;;;;;17.00;6.60;;;-0.50;99.90;;;;;;5012393;28;20021;-68
2022/02/27 06:23:09;;;;;;;17.00;6.53;;;-0.40;99.90;;;;;;5002928;28;20026;-68
2022/02/27 06:25:35;;;;;;;13.55;6.13;;;-0.50;99.90;;;;;;5000972;28;20021;-68
2022/02/27 06:28:00;;;;;;;19.98;7.28;;;-0.40;99.90;;;;;;5011149;28;20037;-68
2022/02/27 06:30:27;;;;;;;14.95;7.03;;;-0.40;99.90;;;;;;5001602;28;20490;-68
2022/02/27 06:32:53;;;;;;;20.00;7.00;;;-0.40;99.90;;;;;;5009235;28;20379;-68
2022/02/27 06:35:22;;;;;;;13.25;5.95;;;-0.30;99.90;;;;;;5005174;28;20026;-68
2022/02/27 06:37:49;;;;;;;13.60;6.40;;;-0.30;99.90;;;;;;5011333;28;20508;-69
2022/02/27 06:40:15;;;;;;;18.80;6.38;;;-0.20;99.90;;;;;;5008505;28;20105;-68
2022/02/27 06:42:41;;;;;;;12.55;5.90;;;0.10;99.90;;;;;;4994121;28;20112;-68
2022/02/27 06:45:09;;;;;;;11.07;5.63;;;0.50;99.90;;;;;;5012331;28;20026;-68
2022/02/27 06:47:35;;;;;;;10.23;5.13;;;0.70;99.90;;;;;;5011557;28;20025;-68
2022/02/27 06:50:01;;;;;;;11.48;5.03;;;1.00;99.90;;;;;;5012027;28;20080;-68
2022/02/27 06:52:27;;;;;;;12.98;5.43;;;1.30;99.90;;;;;;5011350;28;20026;-68
2022/02/27 06:54:52;;;;;;;11.00;5.35;;;1.60;99.90;;;;;;5012612;28;20022;-69
2022/02/27 06:57:18;;;;;;;9.88;5.03;;;1.90;99.90;;;;;;5011559;28;20068;-68
2022/02/27 06:59:44;;;;;;;12.30;5.50;;;2.10;99.90;;;;;;5011311;28;20061;-69
2022/02/27 07:02:10;;;;;;;11.20;5.03;;;2.00;99.90;;;;;;5011904;28;20573;-69
2022/02/27 07:04:37;;;;;;;15.35;6.00;;;2.30;99.90;;;;;;5008503;28;20081;-68
2022/02/27 07:07:03;;;;;;;10.52;4.97;;;2.60;99.90;;;;;;5006275;28;20034;-69
2022/02/27 07:09:28;;;;;;;10.95;4.95;;;2.90;99.90;;;;;;5008098;28;20029;-69
2022/02/27 07:11:54;;;;;;;10.60;5.05;;;3.00;99.90;;;;;;5009843;28;20034;-69
2022/02/27 07:14:22;;;;;;;10.20;4.32;;;2.90;99.90;;;;;;5009763;28;20104;-69
2022/02/27 07:16:48;;;;;;;11.55;4.90;;;2.90;99.90;;;;;;5010885;28;20037;-69
2022/02/27 07:19:14;;;;;;;14.68;5.78;;;3.10;99.90;;;;;;5010729;28;20093;-69
2022/02/27 07:21:40;;;;;;;11.00;5.40;;;3.60;99.90;;;;;;5011341;28;20030;-69
2022/02/27 07:24:06;;;;;;;10.77;5.22;;;4.00;99.90;;;;;;5008423;28;20192;-69
2022/02/27 07:26:32;;;;;;;6.60;4.82;;;4.30;99.90;;;;;;5010966;28;20462;-68
2022/02/27 07:28:58;;;;;;;7.63;4.82;;;4.40;99.90;;;;;;5001019;28;20038;-68
2022/02/27 07:31:23;;;;;;;9.88;4.60;;;4.40;99.90;;;;;;5011146;28;20026;-68
2022/02/27 07:33:49;;;;;;;9.80;5.10;;;4.80;99.90;;;;;;5011195;28;20489;-68
2022/02/27 07:36:16;;;;;;;7.68;4.72;;;5.30;99.90;;;;;;5011082;28;20030;-68
2022/02/27 07:38:41;;;;;;;11.20;4.75;;;5.70;99.90;;;;;;5010320;28;20034;-68
2022/02/27 07:41:07;;;;;;;10.10;4.70;;;6.10;99.90;;;;;;5000524;28;20052;-68
2022/02/27 07:43:32;;;;;;;8.52;4.57;;;6.40;99.90;;;;;;5010471;28;20050;-68
2022/02/27 07:45:58;;;;;;;6.50;4.53;;;6.50;99.90;;;;;;5010251;28;20432;-69
2022/02/27 07:48:23;;;;;;;6.45;4.90;;;6.80;99.90;;;;;;5008951;28;20049;-69
2022/02/27 07:50:49;;;;;;;7.88;4.80;;;7.10;99.90;;;;;;5010167;28;20021;-69
2022/02/27 07:53:15;;;;;;;7.90;4.30;;;7.50;99.90;;;;;;5007797;28;20033;-69
2022/02/27 07:55:40;;;;;;;11.93;4.45;;;7.80;99.90;;;;;;5010726;28;20061;-68
2022/02/27 07:58:06;;;;;;;8.63;4.53;;;8.20;99.90;;;;;;5006584;28;20509;-68
2022/02/27 08:00:31;;;;;;;8.75;4.40;;;8.20;99.90;;;;;;5007289;28;20137;-69
2022/02/27 08:02:57;;;;;;;7.45;4.07;;;8.20;99.90;;;;;;5000973;28;20036;-68
2022/02/27 08:05:23;;;;;;;9.88;5.15;;;8.40;99.90;;;;;;5011608;28;20053;-68
2022/02/27 08:07:49;;;;;;;6.35;4.53;;;8.70;99.90;;;;;;5009107;28;20026;-68
2022/02/27 08:10:14;;;;;;;7.18;4.15;;;8.70;99.90;;;;;;5008159;28;20030;-68
2022/02/27 08:12:44;;;;;;;5.65;4.13;;;8.80;99.90;;;;;;5010899;28;20044;-69
2022/02/27 08:15:10;;;;;;;10.15;4.32;;;8.80;99.90;;;;;;5011278;28;20030;-68
2022/02/27 08:17:37;;;;;;;7.13;4.13;;;8.70;99.90;;;;;;4994444;28;20494;-69
2022/02/27 08:20:03;;;;;;;7.10;3.97;;;8.60;99.90;;;;;;5005488;28;20029;-69
2022/02/27 08:22:29;;;;;;;9.73;4.53;;;8.40;99.90;;;;;;5005739;28;20166;-69
2022/02/27 08:24:55;;;;;;;8.13;4.50;;;8.30;99.90;;;;;;5010830;28;20486;-69
2022/02/27 08:27:20;;;;;;;7.03;4.25;;;8.30;99.90;;;;;;5009081;28;20119;-69
2022/02/27 08:29:46;;;;;;;6.97;4.30;;;8.20;99.90;;;;;;5009951;28;20375;-69
2022/02/27 08:32:11;;;;;;;8.88;4.57;;;8.20;99.90;;;;;;5010481;28;20113;-69
2022/02/27 08:34:37;;;;;;;9.02;4.03;;;8.20;99.90;;;;;;5009517;28;20038;-69
2022/02/27 08:37:03;;;;;;;8.93;4.32;;;8.20;99.90;;;;;;5012063;28;20105;-69
2022/02/27 08:39:29;;;;;;;6.55;4.20;;;8.20;99.90;;;;;;5007441;28;20561;-69
2022/02/27 08:41:55;;;;;;;7.50;3.83;;;8.20;99.90;;;;;;5010174;28;20026;-69
2022/02/27 08:44:21;;;;;;;9.02;4.13;;;8.20;99.90;;;;;;5009081;28;20044;-69
2022/02/27 08:46:46;;;;;;;8.65;3.90;;;8.10;99.90;;;;;;5009767;28;20030;-69
2022/02/27 08:49:12;;;;;;;9.57;4.13;;;8.10;99.90;;;;;;5009549;28;20108;-69
2022/02/27 08:51:37;;;;;;;10.82;4.28;;;8.10;99.90;;;;;;5009957;28;20048;-69
2022/02/27 08:54:03;;;;;;;8.20;4.10;;;8.10;99.90;;;;;;5009303;28;20033;-69
2022/02/27 08:56:29;;;;;;;6.82;4.07;;;8.10;99.90;;;;;;5010317;28;20033;-69
2022/02/27 08:58:55;;;;;;;7.10;3.85;;;8.20;99.90;;;;;;5009241;28;20034;-69
2022/02/27 09:01:20;;;;;;;8.07;4.13;;;8.20;99.90;;;;;;5009882;28;20026;-69
2022/02/27 09:03:46;;;;;;;9.27;4.00;;;8.20;99.60;;;;;;5002685;28;20041;-69
2022/02/27 09:06:11;;;;;;;8.32;3.97;;;8.10;99.20;;;;;;5010124;28;20022;-69
2022/02/27 09:08:40;;;;;;;5.68;3.47;;;7.90;99.00;;;;;;5009845;28;20045;-69
2022/02/27 09:11:06;;;;;;;6.38;3.78;;;7.90;99.00;;;;;;5010186;28;20026;-67
2022/02/27 09:13:32;;;;;;;6.70;3.90;;;7.80;98.90;;;;;;5006817;28;20033;-67
2022/02/27 09:15:57;;;;;;;5.57;3.53;;;7.80;98.90;;;;;;5010178;28;20160;-68
2022/02/27 09:18:23;;;;;;;10.02;3.83;;;7.90;98.60;;;;;;5008686;28;20109;-67
2022/02/27 09:20:49;;;;;;;8.90;3.53;;;7.80;98.40;;;;;;5009906;28;20075;-67
2022/02/27 09:23:15;;;;;;;5.63;3.35;;;7.90;98.60;;;;;;5007012;28;20385;-68
2022/02/27 09:25:40;;;;;;;7.60;3.33;;;8.00;98.10;;;;;;5009131;28;20030;-68
2022/02/27 09:28:06;;;;;;;6.22;2.90;;;8.10;98.00;;;;;;5002833;28;20505;-68
2022/02/27 09:30:31;;;;;;;9.82;3.10;;;8.20;97.80;;;;;;5003813;28;20025;-68
2022/02/27 09:32:57;;;;;;;6.38;3.45;;;8.40;97.60;;;;;;5004354;28;20034;-68
2022/02/27 09:35:28;;;;;;;5.63;2.90;;;8.50;97.40;;;;;;5006666;28;20026;-68
2022/02/27 09:37:58;;;;;;;7.88;3.47;;;8.60;96.80;;;;;;5004892;28;20024;-68
2022/02/27 09:40:24;;;;;;;6.07;2.60;;;8.60;96.60;;;;;;5008223;28;20049;-68
2022/02/27 09:42:52;;;;;;;6.72;2.80;;;8.70;96.20;;;;;;4997143;28;20026;-68
2022/02/27 09:45:20;;;;;;;9.00;3.80;;;8.70;95.70;;;;;;5008602;28;20100;-68
2022/02/27 09:47:48;;;;;;;7.40;3.40;;;8.60;94.80;;;;;;5010030;28;20022;-67
2022/02/27 09:50:13;;;;;;;5.10;2.80;;;8.40;94.90;;;;;;5008003;28;20117;-67
2022/02/27 09:52:39;;;;;;;3.42;2.70;;;8.30;94.80;;;;;;5003211;28;20545;-68
2022/02/27 09:55:06;;;;;;;6.72;3.15;;;8.30;94.70;;;;;;5009384;28;20026;-69
2022/02/27 09:57:34;;;;;;;7.53;3.33;;;8.30;94.80;;;;;;5003712;28;20080;-68
2022/02/27 09:59:59;;;;;;;5.90;3.33;;;8.40;94.80;;;;;;5004599;28;20105;-68
2022/02/27 10:02:25;;;;;;;6.05;2.90;;;8.30;94.40;;;;;;5009277;28;20104;-69
2022/02/27 10:04:51;;;;;;;5.03;2.95;;;8.10;94.40;;;;;;5004096;28;20493;-68
2022/02/27 10:07:18;;;;;;;5.88;3.35;;;7.90;94.20;;;;;;5009789;28;20030;-68
2022/02/27 10:09:46;;;;;;;6.50;3.38;;;7.70;93.90;;;;;;5008546;28;20029;-68
2022/02/27 10:12:23;;;;;;;3.90;2.33;;;7.60;93.90;;;;;;5010942;28;20092;-67
2022/02/27 10:15:19;;;;;;;5.57;2.80;;;7.40;93.80;;;;;;5003413;28;20771;-67
2022/02/27 10:17:45;;;;;;;4.90;2.88;;;7.30;93.60;;;;;;5011949;28;20044;-68
2022/02/27 10:20:12;;;;;;;7.07;2.90;;;7.10;93.70;;;;;;5012649;28;20026;-67
2022/02/27 10:22:42;;;;;;;4.57;2.92;;;7.00;93.80;;;;;;5012889;28;20030;-67
2022/02/27 10:25:26;;;;;;;5.75;2.95;;;6.90;93.80;;;;;;5013477;28;20018;-67
2022/02/27 10:28:00;;;;;;;8.63;3.17;;;6.90;94.00;;;;;;5007041;28;20113;-67
2022/02/27 10:30:38;;;;;;;5.90;3.17;;;6.80;94.00;;;;;;5007834;28;20046;-67
2022/02/27 10:33:06;;;;;;;5.45;2.90;;;6.70;93.50;;;;;;5013040;28;20029;-68
2022/02/27 10:35:52;;;;;;;6.00;2.95;;;6.60;93.70;;;;;;5014103;28;20029;-67
2022/02/27 10:38:45;;;;;;;3.40;2.42;;;6.50;93.40;;;;;;5010238;28;20388;-68
2022/02/27 10:41:12;;;;;;;;;;;6.50;93.40;;;;;;5007285;28;20500;-68
2022/02/27 10:43:45;;;;;;;4.38;2.53;;;6.40;93.80;;;;;;5011724;28;20439;-68
2022/02/27 10:46:12;;;;;;;;;;;6.30;93.80;;;;;;5013442;28;20371;-68
2022/02/27 10:48:38;;;;;;;3.70;2.33;;;6.40;94.40;;;;;;5008263;28;20004;-68
2022/02/27 10:51:09;;;;;;;6.22;2.50;;;6.50;94.50;;;;;;5012671;28;20101;-68
2022/02/27 10:53:40;;;;;;;6.03;3.00;;;6.70;94.50;;;;;;5011376;28;20041;-68
2022/02/27 10:56:10;;;;;;;2.83;2.50;;;6.80;94.20;;;;;;5005002;28;20026;-68
2022/02/27 10:58:56;;;;;;;9.13;3.00;;;7.00;94.40;;;;;;5009916;28;20026;-67
2022/02/27 11:01:24;;;;;;;5.30;2.47;;;7.10;93.80;;;;;;5012771;28;20089;-68
2022/02/27 11:03:55;;;;;;;4.40;2.55;;;7.10;93.60;;;;;;5009964;28;20045;-68
2022/02/27 11:06:21;;;;;;;5.85;3.10;;;7.00;93.00;;;;;;5009815;28;20032;-68
2022/02/27 11:08:48;;;;;;;3.90;2.30;;;6.90;92.80;;;;;;5002418;28;20029;-68
2022/02/27 11:11:14;;;;;;;2.65;2.33;;;6.80;92.60;;;;;;5010104;28;20049;-68
2022/02/27 11:13:43;;;;;;;5.25;2.40;;;6.70;92.20;;;;;;5009092;28;20037;-69
2022/02/27 11:16:09;;;;;;;4.20;2.42;;;6.60;92.10;;;;;;4995348;28;20037;-67
2022/02/27 11:18:36;;;;;;;5.57;2.90;;;6.50;92.00;;;;;;5005951;28;20026;-68
2022/02/27 11:21:01;;;;;;;5.10;2.42;;;6.40;92.00;;;;;;5002549;28;20026;-67
2022/02/27 11:23:28;;;;;;;4.45;2.58;;;6.30;91.90;;;;;;4984904;28;20080;-68
2022/02/27 11:25:55;;;;;;;4.68;2.63;;;6.30;92.00;;;;;;5010347;28;20382;-68
2022/02/27 11:28:23;;;;;;;7.18;2.47;;;6.20;92.10;;;;;;5004579;28;20034;-68
2022/02/27 11:30:53;;;;;;;5.18;2.50;;;6.20;92.10;;;;;;5008136;28;20030;-68
2022/02/27 11:33:23;;;;;;;5.10;2.35;;;6.20;92.10;;;;;;5042223;23;20085;-89
2022/02/27 11:35:52;;;;;;;3.97;2.33;;;6.30;92.00;;;;;;5003559;28;20018;-89
2022/02/27 11:38:30;;;;;;;3.33;2.38;;;6.30;92.00;;;;;;4996021;28;20109;-89
2022/02/27 11:41:09;;;;;;;5.68;2.92;;;6.50;91.90;;;;;;5011390;28;20029;-89
2022/02/27 11:43:50;;;;;;;4.40;2.45;;;6.70;91.90;;;;;;4996016;28;20076;-89
2022/02/27 11:46:17;;;;;;;3.72;2.42;;;6.90;91.80;;;;;;4996291;28;20020;-89
2022/02/27 11:49:04;;;;;;;3.97;2.42;;;7.00;91.60;;;;;;4996046;28;20030;-90
2022/02/27 11:51:44;;;;;;;6.10;2.25;;;7.10;91.30;;;;;;4993138;28;20027;-89
2022/02/27 11:54:11;;;;;;;5.13;2.47;;;7.10;91.20;;;;;;4976658;28;20081;-89
2022/02/27 11:56:38;;;;;;;3.22;2.40;;;7.10;90.90;;;;;;4992556;28;20034;-89
2022/02/27 11:59:05;;;;;;;3.72;2.40;;;7.10;90.80;;;;;;4992360;28;20026;-89
2022/02/27 12:01:49;;;;;;;4.57;2.97;;;7.20;90.90;;;;;;4979458;28;20108;-89
2022/02/27 12:04:21;;;;;;;3.53;2.80;;;7.50;90.80;;;;;;4995906;28;20101;-89
2022/02/27 12:07:05;;;;;;;4.72;2.90;;;7.50;90.60;;;;;;5010407;28;20037;-89
2022/02/27 12:09:49;;;;;;;4.95;2.70;;;7.50;90.00;;;;;;4999017;28;20109;-89
2022/02/27 12:12:52;;;;;;;4.75;2.90;;;7.60;89.50;;;;;;4988559;28;20091;-89
2022/02/27 12:15:27;;;;;;;4.88;2.95;;;7.70;89.50;;;;;;5013612;28;20505;-89
2022/02/27 12:17:55;;;;;;;5.20;2.83;;;7.80;89.60;;;;;;4995312;28;20070;-89
2022/02/27 12:20:39;;;;;;;5.07;2.42;;;7.80;88.70;;;;;;4995671;28;20546;-89
2022/02/27 12:23:09;;;;;;;4.70;2.70;;;7.70;88.20;;;;;;4995482;28;20033;-89
2022/02/27 12:25:44;;;;;;;5.55;2.30;;;7.60;88.10;;;;;;5014093;28;20370;-90
2022/02/27 12:28:10;;;;;;;4.05;2.35;;;7.50;86.70;;;;;;4989956;28;20077;-89
2022/02/27 12:30:36;;;;;;;3.28;2.20;;;7.30;86.70;;;;;;4975933;28;20030;-90
2022/02/27 12:33:07;;;;;;;4.53;2.55;;;7.10;86.30;;;;;;4976201;28;20026;-90
2022/02/27 12:35:39;;;;;;;4.05;2.58;;;7.20;86.70;;;;;;4996387;28;20049;-89
2022/02/27 12:38:11;;;;;;;4.68;2.60;;;7.40;86.90;;;;;;5011828;28;20033;-90
2022/02/27 12:40:37;;;;;;;3.67;2.47;;;7.50;86.60;;;;;;5012713;28;20533;-90
2022/02/27 12:43:13;;;;;;;2.88;2.30;;;7.70;86.60;;;;;;4994815;28;20269;-90
2022/02/27 12:45:39;;;;;;;4.90;2.22;;;7.90;85.70;;;;;;4994585;28;20532;-90
2022/02/27 12:48:12;;;;;;;3.42;2.05;;;8.00;85.70;;;;;;4994436;28;20038;-90
2022/02/27 12:50:53;;;;;;;3.63;2.30;;;8.10;84.90;;;;;;4994497;28;20036;-90